sensor_id;sensor_type;location;lat;lon;timestamp;pressure;altitude;pressure_sealevel;temperature;humidity
11987;BME280;6053;51.382;6.768;2023-06-19T00:01:58;100492.69;;;24.51;58.87
11987;BME280;6053;51.382;6.768;2023-06-19T00:04:26;100495.16;;;24.18;59.64
11987;BME280;6053;51.382;6.768;2023-06-19T00:06:55;100493.19;;;24.44;59.70
11987;BME280;6053;51.382;6.768;2023-06-19T00:09:23;100497.47;;;24.16;59.94
11987;BME280;6053;51.382;6.768;2023-06-19T00:11:53;100497.19;;;24.78;59.34
11987;BME280;6053;51.382;6.768;2023-06-19T00:14:21;100498.44;;;25.07;57.32
11987;BME280;6053;51.382;6.768;2023-06-19T00:16:49;100496.63;;;24.93;58.05
11987;BME280;6053;51.382;6.768;2023-06-19T00:19:18;100495.81;;;24.23;59.61
11987;BME280;6053;51.382;6.768;2023-06-19T00:21:46;100491.66;;;23.95;61.72
11987;BME280;6053;51.382;6.768;2023-06-19T00:24:15;100502.63;;;24.40;60.15
11987;BME280;6053;51.382;6.768;2023-06-19T00:26:43;100490.16;;;23.89;61.18
11987;BME280;6053;51.382;6.768;2023-06-19T00:29:13;100491.44;;;23.83;62.78
11987;BME280;6053;51.382;6.768;2023-06-19T00:31:41;100494.16;;;24.22;61.68
11987;BME280;6053;51.382;6.768;2023-06-19T00:34:09;100500.31;;;24.68;59.55
11987;BME280;6053;51.382;6.768;2023-06-19T00:36:38;100507.28;;;24.36;60.34
11987;BME280;6053;51.382;6.768;2023-06-19T00:39:07;100500.81;;;24.44;59.92
11987;BME280;6053;51.382;6.768;2023-06-19T00:41:36;100502.66;;;24.66;59.38
11987;BME280;6053;51.382;6.768;2023-06-19T00:44:05;100518.22;;;24.81;59.09
11987;BME280;6053;51.382;6.768;2023-06-19T00:46:37;100508.03;;;25.32;57.33
11987;BME280;6053;51.382;6.768;2023-06-19T00:49:06;100519.25;;;25.49;56.44
11987;BME280;6053;51.382;6.768;2023-06-19T00:51:35;100519.88;;;24.99;57.83
11987;BME280;6053;51.382;6.768;2023-06-19T00:54:03;100525.22;;;24.66;59.31
11987;BME280;6053;51.382;6.768;2023-06-19T00:56:32;100531.31;;;25.20;57.74
11987;BME280;6053;51.382;6.768;2023-06-19T00:59:02;100527.81;;;24.97;58.28
11987;BME280;6053;51.382;6.768;2023-06-19T01:01:35;100524.03;;;24.67;58.86
11987;BME280;6053;51.382;6.768;2023-06-19T01:04:04;100528.25;;;25.34;57.45
11987;BME280;6053;51.382;6.768;2023-06-19T01:06:38;100521.88;;;24.90;59.13
11987;BME280;6053;51.382;6.768;2023-06-19T01:09:15;100535.91;;;25.42;57.28
11987;BME280;6053;51.382;6.768;2023-06-19T01:11:49;100542.44;;;25.63;56.62
11987;BME280;6053;51.382;6.768;2023-06-19T01:14:21;100543.22;;;25.81;55.93
11987;BME280;6053;51.382;6.768;2023-06-19T01:16:51;100538.25;;;25.70;56.36
11987;BME280;6053;51.382;6.768;2023-06-19T01:19:22;100528.06;;;24.49;59.07
11987;BME280;6053;51.382;6.768;2023-06-19T01:21:53;100523.72;;;24.51;60.26
11987;BME280;6053;51.382;6.768;2023-06-19T01:24:22;100527.19;;;24.83;60.00
11987;BME280;6053;51.382;6.768;2023-06-19T01:26:51;100530.78;;;25.27;58.17
11987;BME280;6053;51.382;6.768;2023-06-19T01:29:19;100530.50;;;25.58;57.16
11987;BME280;6053;51.382;6.768;2023-06-19T01:31:54;100529.94;;;25.73;56.24
11987;BME280;6053;51.382;6.768;2023-06-19T01:34:26;100528.78;;;25.36;57.98
11987;BME280;6053;51.382;6.768;2023-06-19T01:36:55;100525.78;;;25.32;58.45
11987;BME280;6053;51.382;6.768;2023-06-19T01:39:26;100525.97;;;25.10;58.93
11987;BME280;6053;51.382;6.768;2023-06-19T01:41:56;100530.72;;;25.44;58.10
11987;BME280;6053;51.382;6.768;2023-06-19T01:44:24;100521.50;;;25.64;57.23
11987;BME280;6053;51.382;6.768;2023-06-19T01:46:53;100513.97;;;25.69;57.16
11987;BME280;6053;51.382;6.768;2023-06-19T01:49:21;100513.94;;;25.77;56.96
11987;BME280;6053;51.382;6.768;2023-06-19T01:51:50;100514.59;;;25.45;57.64
11987;BME280;6053;51.382;6.768;2023-06-19T01:54:18;100518.00;;;25.68;56.74
11987;BME280;6053;51.382;6.768;2023-06-19T01:56:48;100523.63;;;25.68;57.24
11987;BME280;6053;51.382;6.768;2023-06-19T01:59:16;100530.25;;;25.80;56.71
11987;BME280;6053;51.382;6.768;2023-06-19T02:01:45;100545.84;;;25.78;56.63
11987;BME280;6053;51.382;6.768;2023-06-19T02:04:13;100539.03;;;25.49;57.17
11987;BME280;6053;51.382;6.768;2023-06-19T02:06:42;100549.56;;;25.70;57.00
11987;BME280;6053;51.382;6.768;2023-06-19T02:09:10;100547.34;;;25.75;56.97
11987;BME280;6053;51.382;6.768;2023-06-19T02:11:39;100551.19;;;25.79;57.04
11987;BME280;6053;51.382;6.768;2023-06-19T02:14:09;100547.25;;;25.16;57.98
11987;BME280;6053;51.382;6.768;2023-06-19T02:16:38;100548.63;;;25.48;58.06
11987;BME280;6053;51.382;6.768;2023-06-19T02:19:07;100562.75;;;25.48;58.14
11987;BME280;6053;51.382;6.768;2023-06-19T02:21:36;100561.69;;;25.70;57.53
11987;BME280;6053;51.382;6.768;2023-06-19T02:24:05;100569.13;;;25.75;57.39
11987;BME280;6053;51.382;6.768;2023-06-19T02:26:34;100575.28;;;25.85;57.07
11987;BME280;6053;51.382;6.768;2023-06-19T02:29:02;100577.66;;;25.19;59.29
11987;BME280;6053;51.382;6.768;2023-06-19T02:31:32;100586.00;;;25.54;58.26
11987;BME280;6053;51.382;6.768;2023-06-19T02:34:00;100587.72;;;25.37;58.75
11987;BME280;6053;51.382;6.768;2023-06-19T02:36:29;100592.94;;;25.65;58.06
11987;BME280;6053;51.382;6.768;2023-06-19T02:38:57;100600.91;;;25.16;59.67
11987;BME280;6053;51.382;6.768;2023-06-19T02:41:26;100602.19;;;24.84;60.37
11987;BME280;6053;51.382;6.768;2023-06-19T02:43:54;100604.88;;;24.14;65.82
11987;BME280;6053;51.382;6.768;2023-06-19T02:46:23;100610.81;;;23.64;66.78
11987;BME280;6053;51.382;6.768;2023-06-19T02:48:53;100612.03;;;23.72;67.15
11987;BME280;6053;51.382;6.768;2023-06-19T02:51:21;100621.28;;;23.41;68.84
11987;BME280;6053;51.382;6.768;2023-06-19T02:53:49;100629.56;;;22.79;72.32
11987;BME280;6053;51.382;6.768;2023-06-19T02:56:18;100626.03;;;23.32;70.43
11987;BME280;6053;51.382;6.768;2023-06-19T02:58:46;100631.75;;;24.12;66.76
11987;BME280;6053;51.382;6.768;2023-06-19T03:01:15;100630.13;;;23.26;70.79
11987;BME280;6053;51.382;6.768;2023-06-19T03:03:43;100629.13;;;23.84;68.10
11987;BME280;6053;51.382;6.768;2023-06-19T03:06:15;100626.22;;;23.13;70.83
11987;BME280;6053;51.382;6.768;2023-06-19T03:08:46;100631.47;;;23.28;69.04
11987;BME280;6053;51.382;6.768;2023-06-19T03:11:14;100642.16;;;22.81;73.23
11987;BME280;6053;51.382;6.768;2023-06-19T03:13:48;100641.06;;;23.27;72.06
11987;BME280;6053;51.382;6.768;2023-06-19T03:16:16;100637.53;;;22.99;71.91
11987;BME280;6053;51.382;6.768;2023-06-19T03:18:45;100633.81;;;22.26;76.84
11987;BME280;6053;51.382;6.768;2023-06-19T03:21:20;100636.75;;;22.21;76.40
11987;BME280;6053;51.382;6.768;2023-06-19T03:23:49;100637.84;;;21.93;79.29
11987;BME280;6053;51.382;6.768;2023-06-19T03:26:18;100631.81;;;21.99;77.43
11987;BME280;6053;51.382;6.768;2023-06-19T03:28:47;100634.69;;;22.27;77.03
11987;BME280;6053;51.382;6.768;2023-06-19T03:31:15;100639.72;;;22.52;76.08
11987;BME280;6053;51.382;6.768;2023-06-19T03:33:44;100649.38;;;22.74;75.77
11987;BME280;6053;51.382;6.768;2023-06-19T03:36:12;100651.75;;;22.80;74.05
11987;BME280;6053;51.382;6.768;2023-06-19T03:38:42;100657.00;;;22.59;75.82
11987;BME280;6053;51.382;6.768;2023-06-19T03:41:10;100660.25;;;23.25;72.35
11987;BME280;6053;51.382;6.768;2023-06-19T03:43:39;100662.66;;;22.32;76.29
11987;BME280;6053;51.382;6.768;2023-06-19T03:46:07;100669.84;;;22.38;78.00
11987;BME280;6053;51.382;6.768;2023-06-19T03:48:36;100668.78;;;22.48;78.95
11987;BME280;6053;51.382;6.768;2023-06-19T03:51:04;100677.09;;;22.53;77.36
11987;BME280;6053;51.382;6.768;2023-06-19T03:53:32;100679.16;;;22.06;79.82
11987;BME280;6053;51.382;6.768;2023-06-19T03:56:02;100686.97;;;22.09;79.63
11987;BME280;6053;51.382;6.768;2023-06-19T03:58:30;100695.50;;;21.90;82.82
11987;BME280;6053;51.382;6.768;2023-06-19T04:00:59;100703.56;;;22.38;80.36
11987;BME280;6053;51.382;6.768;2023-06-19T04:03:27;100709.56;;;22.59;79.20
11987;BME280;6053;51.382;6.768;2023-06-19T04:05:55;100714.25;;;21.62;84.37
11987;BME280;6053;51.382;6.768;2023-06-19T04:08:24;100720.91;;;21.66;84.36
11987;BME280;6053;51.382;6.768;2023-06-19T04:10:53;100727.75;;;22.06;84.26
11987;BME280;6053;51.382;6.768;2023-06-19T04:13:22;100720.38;;;22.10;82.68
11987;BME280;6053;51.382;6.768;2023-06-19T04:15:52;100731.53;;;21.69;85.39
11987;BME280;6053;51.382;6.768;2023-06-19T04:18:21;100740.19;;;22.33;81.39
11987;BME280;6053;51.382;6.768;2023-06-19T04:20:49;100744.16;;;22.32;82.07
11987;BME280;6053;51.382;6.768;2023-06-19T04:23:17;100744.38;;;22.03;83.57
11987;BME280;6053;51.382;6.768;2023-06-19T04:25:46;100740.03;;;21.64;88.04
11987;BME280;6053;51.382;6.768;2023-06-19T04:28:14;100748.31;;;22.34;82.00
11987;BME280;6053;51.382;6.768;2023-06-19T04:30:44;100746.81;;;21.63;86.23
11987;BME280;6053;51.382;6.768;2023-06-19T04:33:12;100746.31;;;21.75;87.17
11987;BME280;6053;51.382;6.768;2023-06-19T04:35:41;100746.84;;;22.78;79.55
11987;BME280;6053;51.382;6.768;2023-06-19T04:38:10;100752.06;;;22.71;80.45
11987;BME280;6053;51.382;6.768;2023-06-19T04:40:41;100752.09;;;22.44;80.90
11987;BME280;6053;51.382;6.768;2023-06-19T04:43:10;100753.72;;;21.84;85.69
11987;BME280;6053;51.382;6.768;2023-06-19T04:45:39;100750.38;;;22.84;80.05
11987;BME280;6053;51.382;6.768;2023-06-19T04:48:09;100754.41;;;23.19;77.33
11987;BME280;6053;51.382;6.768;2023-06-19T04:50:38;100761.44;;;23.30;75.72
11987;BME280;6053;51.382;6.768;2023-06-19T04:53:06;100764.56;;;23.65;73.71
11987;BME280;6053;51.382;6.768;2023-06-19T04:55:35;100761.22;;;23.41;75.97
11987;BME280;6053;51.382;6.768;2023-06-19T04:58:04;100767.34;;;23.79;72.65
11987;BME280;6053;51.382;6.768;2023-06-19T05:00:32;100770.28;;;24.59;69.03
11987;BME280;6053;51.382;6.768;2023-06-19T05:03:01;100766.16;;;24.03;71.97
11987;BME280;6053;51.382;6.768;2023-06-19T05:05:30;100775.44;;;24.65;69.67
11987;BME280;6053;51.382;6.768;2023-06-19T05:08:01;100777.47;;;24.91;66.92
11987;BME280;6053;51.382;6.768;2023-06-19T05:10:29;100774.69;;;24.51;69.67
11987;BME280;6053;51.382;6.768;2023-06-19T05:12:58;100778.34;;;23.89;73.07
11987;BME280;6053;51.382;6.768;2023-06-19T05:15:27;100784.19;;;23.57;74.07
11987;BME280;6053;51.382;6.768;2023-06-19T05:17:55;100786.53;;;22.91;77.54
11987;BME280;6053;51.382;6.768;2023-06-19T05:20:23;100796.44;;;22.88;81.50
11987;BME280;6053;51.382;6.768;2023-06-19T05:22:54;100799.41;;;23.19;78.04
11987;BME280;6053;51.382;6.768;2023-06-19T05:25:22;100799.72;;;22.21;84.80
11987;BME280;6053;51.382;6.768;2023-06-19T05:27:51;100791.22;;;22.81;79.72
11987;BME280;6053;51.382;6.768;2023-06-19T05:30:19;100796.66;;;23.78;74.26
11987;BME280;6053;51.382;6.768;2023-06-19T05:32:48;100794.34;;;23.80;73.54
11987;BME280;6053;51.382;6.768;2023-06-19T05:35:16;100782.94;;;24.39;71.53
11987;BME280;6053;51.382;6.768;2023-06-19T05:37:45;100790.78;;;25.08;68.48
11987;BME280;6053;51.382;6.768;2023-06-19T05:40:15;100799.56;;;24.89;67.52
11987;BME280;6053;51.382;6.768;2023-06-19T05:42:43;100798.06;;;24.20;72.17
11987;BME280;6053;51.382;6.768;2023-06-19T05:45:11;100802.97;;;24.06;72.57
11987;BME280;6053;51.382;6.768;2023-06-19T05:47:40;100798.31;;;22.79;82.23
11987;BME280;6053;51.382;6.768;2023-06-19T05:50:09;100808.28;;;23.13;78.41
11987;BME280;6053;51.382;6.768;2023-06-19T05:52:37;100807.91;;;22.78;80.54
11987;BME280;6053;51.382;6.768;2023-06-19T05:55:10;100802.69;;;22.44;83.28
11987;BME280;6053;51.382;6.768;2023-06-19T05:57:41;100817.16;;;22.78;81.07
11987;BME280;6053;51.382;6.768;2023-06-19T06:00:11;100810.50;;;23.02;79.36
11987;BME280;6053;51.382;6.768;2023-06-19T06:02:42;100807.91;;;22.64;83.79
11987;BME280;6053;51.382;6.768;2023-06-19T06:05:10;100805.69;;;22.89;81.86
11987;BME280;6053;51.382;6.768;2023-06-19T06:07:39;100807.56;;;22.79;81.00
11987;BME280;6053;51.382;6.768;2023-06-19T06:10:08;100823.53;;;23.84;75.64
11987;BME280;6053;51.382;6.768;2023-06-19T06:12:37;100822.16;;;22.68;80.22
11987;BME280;6053;51.382;6.768;2023-06-19T06:15:08;100818.31;;;22.91;81.14
11987;BME280;6053;51.382;6.768;2023-06-19T06:17:36;100817.78;;;21.82;88.32
11987;BME280;6053;51.382;6.768;2023-06-19T06:20:06;100826.63;;;22.69;84.39
11987;BME280;6053;51.382;6.768;2023-06-19T06:22:39;100824.63;;;22.42;84.45
11987;BME280;6053;51.382;6.768;2023-06-19T06:25:08;100830.91;;;22.80;83.43
11987;BME280;6053;51.382;6.768;2023-06-19T06:27:40;100828.88;;;21.55;89.60
11987;BME280;6053;51.382;6.768;2023-06-19T06:30:12;100824.97;;;22.54;86.71
11987;BME280;6053;51.382;6.768;2023-06-19T06:32:42;100825.69;;;22.73;83.09
11987;BME280;6053;51.382;6.768;2023-06-19T06:35:11;100830.41;;;22.78;84.63
11987;BME280;6053;51.382;6.768;2023-06-19T06:37:40;100833.41;;;22.54;84.82
11987;BME280;6053;51.382;6.768;2023-06-19T06:40:09;100821.97;;;21.66;92.67
11987;BME280;6053;51.382;6.768;2023-06-19T06:42:38;100826.16;;;22.20;90.98
11987;BME280;6053;51.382;6.768;2023-06-19T06:45:08;100842.88;;;22.72;86.14
11987;BME280;6053;51.382;6.768;2023-06-19T06:47:37;100834.06;;;21.48;98.87
11987;BME280;6053;51.382;6.768;2023-06-19T06:50:08;100830.31;;;21.52;100.00
11987;BME280;6053;51.382;6.768;2023-06-19T06:52:37;100850.38;;;21.64;100.00
11987;BME280;6053;51.382;6.768;2023-06-19T06:55:06;100846.19;;;21.81;100.00
11987;BME280;6053;51.382;6.768;2023-06-19T06:57:35;100843.28;;;22.38;99.12
11987;BME280;6053;51.382;6.768;2023-06-19T07:00:06;100858.41;;;21.90;100.00
11987;BME280;6053;51.382;6.768;2023-06-19T07:02:39;100868.22;;;22.25;100.00
11987;BME280;6053;51.382;6.768;2023-06-19T07:05:09;100870.84;;;22.35;100.00
11987;BME280;6053;51.382;6.768;2023-06-19T07:07:38;100870.97;;;22.44;100.00
11987;BME280;6053;51.382;6.768;2023-06-19T07:10:08;100864.56;;;22.06;100.00
11987;BME280;6053;51.382;6.768;2023-06-19T07:12:45;100869.56;;;22.61;100.00
11987;BME280;6053;51.382;6.768;2023-06-19T07:15:14;100878.69;;;22.20;100.00
11987;BME280;6053;51.382;6.768;2023-06-19T07:17:45;100893.09;;;22.92;96.68
11987;BME280;6053;51.382;6.768;2023-06-19T07:20:13;100893.66;;;23.22;93.74
11987;BME280;6053;51.382;6.768;2023-06-19T07:22:46;100899.81;;;23.24;93.41
11987;BME280;6053;51.382;6.768;2023-06-19T07:25:15;100890.47;;;22.68;95.85
11987;BME280;6053;51.382;6.768;2023-06-19T07:27:44;100891.31;;;22.22;98.15
11987;BME280;6053;51.382;6.768;2023-06-19T07:30:14;100896.09;;;22.22;98.05
11987;BME280;6053;51.382;6.768;2023-06-19T07:32:45;100896.28;;;22.44;98.28
11987;BME280;6053;51.382;6.768;2023-06-19T07:35:13;100893.69;;;22.48;96.36
11987;BME280;6053;51.382;6.768;2023-06-19T07:37:42;100888.59;;;22.17;99.33
11987;BME280;6053;51.382;6.768;2023-06-19T07:40:12;100892.03;;;22.47;96.14
11987;BME280;6053;51.382;6.768;2023-06-19T07:42:42;100902.09;;;22.15;97.91
11987;BME280;6053;51.382;6.768;2023-06-19T07:45:12;100898.16;;;21.97;100.00
11987;BME280;6053;51.382;6.768;2023-06-19T07:47:41;100904.25;;;22.23;99.39
11987;BME280;6053;51.382;6.768;2023-06-19T07:50:12;100896.84;;;21.89;100.00
11987;BME280;6053;51.382;6.768;2023-06-19T07:52:40;100905.06;;;22.05;100.00
11987;BME280;6053;51.382;6.768;2023-06-19T07:55:10;100909.75;;;22.61;100.00
11987;BME280;6053;51.382;6.768;2023-06-19T07:57:39;100910.31;;;22.91;100.00
11987;BME280;6053;51.382;6.768;2023-06-19T08:00:09;100903.75;;;23.23;100.00
11987;BME280;6053;51.382;6.768;2023-06-19T08:02:40;100906.31;;;23.47;100.00
11987;BME280;6053;51.382;6.768;2023-06-19T08:05:11;100912.78;;;23.97;93.53
11987;BME280;6053;51.382;6.768;2023-06-19T08:07:41;100909.75;;;25.81;78.23
11987;BME280;6053;51.382;6.768;2023-06-19T08:10:10;100915.88;;;25.66;76.49
11987;BME280;6053;51.382;6.768;2023-06-19T08:12:41;100912.97;;;25.39;75.31
11987;BME280;6053;51.382;6.768;2023-06-19T08:15:11;100905.53;;;26.65;72.22
11987;BME280;6053;51.382;6.768;2023-06-19T08:17:41;100897.59;;;26.32;70.27
11987;BME280;6053;51.382;6.768;2023-06-19T08:20:12;100898.88;;;25.48;71.45
11987;BME280;6053;51.382;6.768;2023-06-19T08:22:41;100891.28;;;26.27;71.12
11987;BME280;6053;51.382;6.768;2023-06-19T08:25:10;100897.69;;;24.92;74.94
11987;BME280;6053;51.382;6.768;2023-06-19T08:27:39;100902.38;;;25.54;72.52
11987;BME280;6053;51.382;6.768;2023-06-19T08:30:09;100903.38;;;25.58;72.77
11987;BME280;6053;51.382;6.768;2023-06-19T08:32:37;100902.13;;;26.16;70.37
11987;BME280;6053;51.382;6.768;2023-06-19T08:35:08;100905.28;;;24.52;75.14
11987;BME280;6053;51.382;6.768;2023-06-19T08:37:38;100896.84;;;24.60;77.34
11987;BME280;6053;51.382;6.768;2023-06-19T08:40:09;100899.63;;;24.83;73.43
11987;BME280;6053;51.382;6.768;2023-06-19T08:42:38;100907.19;;;25.53;72.56
11987;BME280;6053;51.382;6.768;2023-06-19T08:45:08;100895.84;;;25.27;72.59
11987;BME280;6053;51.382;6.768;2023-06-19T08:47:37;100899.13;;;24.05;75.08
11987;BME280;6053;51.382;6.768;2023-06-19T08:50:07;100903.34;;;24.92;75.54
11987;BME280;6053;51.382;6.768;2023-06-19T08:52:38;100900.25;;;24.26;76.47
11987;BME280;6053;51.382;6.768;2023-06-19T08:55:07;100906.78;;;24.58;73.94
11987;BME280;6053;51.382;6.768;2023-06-19T08:57:38;100911.91;;;24.33;77.27
11987;BME280;6053;51.382;6.768;2023-06-19T09:00:10;100902.88;;;24.67;73.42
11987;BME280;6053;51.382;6.768;2023-06-19T09:02:43;100905.91;;;25.77;66.88
11987;BME280;6053;51.382;6.768;2023-06-19T09:05:27;100909.94;;;25.19;69.63
11987;BME280;6053;51.382;6.768;2023-06-19T09:07:59;100910.25;;;26.00;66.20
11987;BME280;6053;51.382;6.768;2023-06-19T09:10:30;100909.03;;;25.75;64.34
11987;BME280;6053;51.382;6.768;2023-06-19T09:13:02;100904.22;;;25.10;66.83
11987;BME280;6053;51.382;6.768;2023-06-19T09:15:34;100904.75;;;25.95;66.59
11987;BME280;6053;51.382;6.768;2023-06-19T09:18:05;100907.50;;;26.73;63.62
11987;BME280;6053;51.382;6.768;2023-06-19T09:20:37;100904.09;;;24.75;66.51
11987;BME280;6053;51.382;6.768;2023-06-19T09:23:13;100913.78;;;25.31;65.93
11987;BME280;6053;51.382;6.768;2023-06-19T09:25:46;100910.59;;;25.90;65.76
11987;BME280;6053;51.382;6.768;2023-06-19T09:28:20;100907.56;;;25.78;62.34
11987;BME280;6053;51.382;6.768;2023-06-19T09:30:57;100911.50;;;25.51;64.66
11987;BME280;6053;51.382;6.768;2023-06-19T09:33:31;100912.25;;;26.26;63.08
11987;BME280;6053;51.382;6.768;2023-06-19T09:36:04;100917.81;;;26.78;58.53
11987;BME280;6053;51.382;6.768;2023-06-19T09:38:37;100922.06;;;27.01;60.12
11987;BME280;6053;51.382;6.768;2023-06-19T09:41:09;100918.69;;;27.76;53.93
11987;BME280;6053;51.382;6.768;2023-06-19T09:43:42;100913.69;;;26.58;55.80
11987;BME280;6053;51.382;6.768;2023-06-19T09:46:12;100919.06;;;26.07;58.56
11987;BME280;6053;51.382;6.768;2023-06-19T09:48:44;100928.06;;;26.09;61.49
11987;BME280;6053;51.382;6.768;2023-06-19T09:51:19;100923.56;;;26.17;59.18
11987;BME280;6053;51.382;6.768;2023-06-19T09:53:51;100924.72;;;26.07;60.18
11987;BME280;6053;51.382;6.768;2023-06-19T09:56:20;100932.56;;;27.01;56.56
11987;BME280;6053;51.382;6.768;2023-06-19T09:58:53;100944.38;;;27.71;57.96
11987;BME280;6053;51.382;6.768;2023-06-19T10:01:24;100943.50;;;26.12;58.17
11987;BME280;6053;51.382;6.768;2023-06-19T10:04:04;100946.78;;;26.84;54.71
11987;BME280;6053;51.382;6.768;2023-06-19T10:06:42;100946.38;;;27.70;55.55
11987;BME280;6053;51.382;6.768;2023-06-19T10:09:15;100939.16;;;27.52;54.92
11987;BME280;6053;51.382;6.768;2023-06-19T10:11:49;100947.97;;;29.34;49.67
11987;BME280;6053;51.382;6.768;2023-06-19T10:14:20;100941.66;;;28.92;49.43
11987;BME280;6053;51.382;6.768;2023-06-19T10:16:49;100948.03;;;28.88;48.91
11987;BME280;6053;51.382;6.768;2023-06-19T10:19:21;100950.94;;;28.67;49.91
11987;BME280;6053;51.382;6.768;2023-06-19T10:21:54;100938.84;;;29.90;45.46
11987;BME280;6053;51.382;6.768;2023-06-19T10:24:27;100933.88;;;29.50;46.23
11987;BME280;6053;51.382;6.768;2023-06-19T10:26:57;100943.16;;;29.34;45.78
11987;BME280;6053;51.382;6.768;2023-06-19T10:29:38;100941.44;;;27.59;50.56
11987;BME280;6053;51.382;6.768;2023-06-19T10:32:15;100947.50;;;26.63;55.86
11987;BME280;6053;51.382;6.768;2023-06-19T10:34:46;100946.72;;;27.69;52.92
11987;BME280;6053;51.382;6.768;2023-06-19T10:37:16;100940.06;;;28.70;48.75
11987;BME280;6053;51.382;6.768;2023-06-19T10:39:46;100933.44;;;28.65;48.56
11987;BME280;6053;51.382;6.768;2023-06-19T10:42:15;100920.25;;;26.97;50.57
11987;BME280;6053;51.382;6.768;2023-06-19T10:44:44;100924.34;;;28.18;50.57
11987;BME280;6053;51.382;6.768;2023-06-19T10:47:14;100923.38;;;28.80;49.74
11987;BME280;6053;51.382;6.768;2023-06-19T10:49:43;100935.09;;;29.49;47.58
11987;BME280;6053;51.382;6.768;2023-06-19T10:52:12;100934.34;;;28.36;49.72
11987;BME280;6053;51.382;6.768;2023-06-19T10:54:43;100924.63;;;29.04;48.92
11987;BME280;6053;51.382;6.768;2023-06-19T10:57:13;100915.91;;;29.33;46.99
11987;BME280;6053;51.382;6.768;2023-06-19T10:59:42;100919.34;;;29.15;47.91
11987;BME280;6053;51.382;6.768;2023-06-19T11:02:11;100919.69;;;27.80;48.39
11987;BME280;6053;51.382;6.768;2023-06-19T11:04:40;100912.09;;;28.47;50.61
11987;BME280;6053;51.382;6.768;2023-06-19T11:07:09;100919.28;;;28.45;50.26
11987;BME280;6053;51.382;6.768;2023-06-19T11:09:38;100914.03;;;29.25;44.41
11987;BME280;6053;51.382;6.768;2023-06-19T11:12:19;100912.94;;;29.67;46.04
11987;BME280;6053;51.382;6.768;2023-06-19T11:14:49;100917.31;;;28.36;45.75
11987;BME280;6053;51.382;6.768;2023-06-19T11:17:20;100910.88;;;27.94;49.64
11987;BME280;6053;51.382;6.768;2023-06-19T11:19:51;100923.09;;;28.49;47.54
11987;BME280;6053;51.382;6.768;2023-06-19T11:22:20;100910.63;;;28.86;46.83
11987;BME280;6053;51.382;6.768;2023-06-19T11:24:50;100904.19;;;29.35;47.02
11987;BME280;6053;51.382;6.768;2023-06-19T11:27:22;100910.09;;;29.54;43.51
11987;BME280;6053;51.382;6.768;2023-06-19T11:29:56;100908.78;;;29.52;46.71
11987;BME280;6053;51.382;6.768;2023-06-19T11:32:32;100907.34;;;28.84;43.65
11987;BME280;6053;51.382;6.768;2023-06-19T11:35:07;100903.16;;;28.70;48.17
11987;BME280;6053;51.382;6.768;2023-06-19T11:37:42;100901.81;;;27.80;46.62
11987;BME280;6053;51.382;6.768;2023-06-19T11:40:11;100897.34;;;28.33;47.99
11987;BME280;6053;51.382;6.768;2023-06-19T11:42:48;100909.94;;;28.89;48.37
11987;BME280;6053;51.382;6.768;2023-06-19T11:45:17;100901.38;;;28.32;42.21
11987;BME280;6053;51.382;6.768;2023-06-19T11:47:47;100896.41;;;28.62;43.61
11987;BME280;6053;51.382;6.768;2023-06-19T11:50:17;100900.28;;;27.82;42.06
11987;BME280;6053;51.382;6.768;2023-06-19T11:52:48;100900.69;;;28.68;47.19
11987;BME280;6053;51.382;6.768;2023-06-19T11:55:16;100912.34;;;29.00;44.43
11987;BME280;6053;51.382;6.768;2023-06-19T11:57:47;100915.75;;;28.48;42.38
11987;BME280;6053;51.382;6.768;2023-06-19T12:00:16;100907.09;;;28.89;44.24
11987;BME280;6053;51.382;6.768;2023-06-19T12:02:45;100912.63;;;28.74;44.98
11987;BME280;6053;51.382;6.768;2023-06-19T12:05:17;100906.94;;;28.74;44.94
11987;BME280;6053;51.382;6.768;2023-06-19T12:07:46;100906.69;;;29.24;41.12
11987;BME280;6053;51.382;6.768;2023-06-19T12:10:16;100905.31;;;28.39;42.60
11987;BME280;6053;51.382;6.768;2023-06-19T12:12:45;100905.31;;;28.18;43.11
11987;BME280;6053;51.382;6.768;2023-06-19T12:15:15;100899.38;;;28.11;42.03
11987;BME280;6053;51.382;6.768;2023-06-19T12:17:45;100903.06;;;28.78;43.52
11987;BME280;6053;51.382;6.768;2023-06-19T12:20:14;100900.34;;;28.82;46.80
11987;BME280;6053;51.382;6.768;2023-06-19T12:22:44;100892.25;;;29.05;43.05
11987;BME280;6053;51.382;6.768;2023-06-19T12:25:12;100880.38;;;29.27;43.65
11987;BME280;6053;51.382;6.768;2023-06-19T12:27:42;100897.06;;;29.53;44.67
11987;BME280;6053;51.382;6.768;2023-06-19T12:30:12;100889.84;;;28.49;44.59
11987;BME280;6053;51.382;6.768;2023-06-19T12:32:43;100892.25;;;28.59;45.64
11987;BME280;6053;51.382;6.768;2023-06-19T12:35:12;100894.06;;;28.10;43.48
11987;BME280;6053;51.382;6.768;2023-06-19T12:37:41;100901.25;;;27.86;45.90
11987;BME280;6053;51.382;6.768;2023-06-19T12:40:10;100897.06;;;28.26;45.68
11987;BME280;6053;51.382;6.768;2023-06-19T12:42:40;100892.75;;;27.86;44.55
11987;BME280;6053;51.382;6.768;2023-06-19T12:45:11;100899.47;;;28.36;41.69
11987;BME280;6053;51.382;6.768;2023-06-19T12:47:40;100899.94;;;28.59;41.15
11987;BME280;6053;51.382;6.768;2023-06-19T12:50:13;100892.47;;;28.54;42.00
11987;BME280;6053;51.382;6.768;2023-06-19T12:52:43;100905.31;;;28.85;39.53
11987;BME280;6053;51.382;6.768;2023-06-19T12:55:12;100895.38;;;28.12;43.18
11987;BME280;6053;51.382;6.768;2023-06-19T12:57:41;100908.75;;;28.78;42.40
11987;BME280;6053;51.382;6.768;2023-06-19T13:00:12;100910.75;;;28.90;41.10
11987;BME280;6053;51.382;6.768;2023-06-19T13:02:41;100919.81;;;29.17;39.45
11987;BME280;6053;51.382;6.768;2023-06-19T13:05:12;100915.13;;;28.42;40.75
11987;BME280;6053;51.382;6.768;2023-06-19T13:07:41;100907.59;;;28.25;41.59
11987;BME280;6053;51.382;6.768;2023-06-19T13:10:10;100894.00;;;27.98;41.46
11987;BME280;6053;51.382;6.768;2023-06-19T13:12:41;100895.56;;;28.61;42.06
11987;BME280;6053;51.382;6.768;2023-06-19T13:15:10;100888.28;;;28.97;42.82